aviador You're here:

KGKJ Decoded Metar

MEADVILLE in PA, USA
Report Time2018-01-18 20:53:00
UTC Time2018-01-18 21:36:38
Flight Rules vfr VFR
Wind210° at 11 kt
W.Decomp.*RWY 25: 9.3 kt HW 5.8 kt LCW
W.Rank210° ranks 2
Current wind is above 210° avg. (7.2)
Visibility9999 m
Phenomena:N/A
Clouds:N/A
Expected CloudBase > 2,400 ft AGL from Temp-Dew spread
CeilingNone
Temp-6°C (ISA -18)
Dew Point-12°C (63% RH)
AAT-13.1°C
QNH1017 hPa
Density Alt-942 ft
Elevation1,404 ft
Report Wrong Elevation
Raw Report
METAR KGKJ 182053Z AUTO 21011KT 10SM CLR M06/M12 A3003 RMK AO2 SLP196
T10561117 56013=

Extra information for KGKJ:More info

Metar Taf Metar & Taf Last 4 Metars F.Rules Stats Wind Profile Meteogram Temp Stats Airport Information Weather charts Add Link Nearby VenuesMetar ALERT Operation Metar Decoded Social comments

AIRNAV info for KGKJ